Time;durP1;ratioP1;P1;durP2;ratioP2;P2;SDS_P1;SDS_P2;PMS_P1;PMS_P2;Temp;Humidity;BMP_temperature;BMP_pressure;BME280_temperature;BME280_humidity;BME280_pressure;Samples;Min_cycle;Max_cycle;Signal;HPM_P1;HPM_P2
2023/09/16 00:00:34;;;;;;;;;;;;;;;22.39;52.28;100778.03;4193694;28;20284;-61
2023/09/16 00:02:36;;;;;;;;;;;;;;;22.37;52.69;100778.13;4193653;27;19924;-62
2023/09/16 00:04:38;;;;;;;;;;;;;;;22.37;52.36;100780.81;4193954;28;19924;-61
2023/09/16 00:06:39;;;;;;;;;;;;;;;22.37;52.45;100783.50;4193947;28;19928;-61
2023/09/16 00:08:42;;;;;;;;;;;;;;;22.36;52.43;100776.44;4193701;28;19925;-61
2023/09/16 00:10:44;;;;;;;;;;;;;;;22.36;52.79;100775.56;4193830;28;20293;-61
2023/09/16 00:12:45;;;;;;;;;;;;;;;22.36;52.30;100778.25;4193548;28;19925;-61
2023/09/16 00:14:47;;;;;;;;;;;;;;;22.35;52.54;100777.41;4193799;28;19924;-61
2023/09/16 00:16:50;;;;;;;;;;;;;;;22.35;52.37;100774.72;4195954;28;19931;-61
2023/09/16 00:18:52;;;;;;;;;;;;;;;22.34;52.53;100779.22;4211934;28;19924;-61
2023/09/16 00:20:54;;;;;;;;;;;;;;;22.33;52.57;100774.00;4196470;27;20392;-61
2023/09/16 00:22:57;;;;;;;;;;;;;;;22.33;52.69;100777.53;4196330;28;19924;-61
2023/09/16 00:24:58;;;;;;;;;;;;;;;22.32;52.56;100775.84;4196423;28;20279;-61
2023/09/16 00:27:01;;;;;;;;;;;;;;;22.32;52.57;100772.28;4196702;28;20038;-61
2023/09/16 00:29:02;;;;;;;;;;;;;;;22.31;52.79;100767.94;4178795;28;20063;-61
2023/09/16 00:31:06;;;;;;;;;;;;;;;22.30;52.91;100772.44;4196007;28;20313;-61
2023/09/16 00:33:08;;;;;;;;;;;;;;;22.31;52.79;100773.28;4196463;28;19931;-61
2023/09/16 00:35:09;;;;;;;;;;;;;;;22.29;52.61;100768.03;4196564;28;20408;-61
2023/09/16 00:37:12;;;;;;;;;;;;;;;22.31;52.58;100773.28;4196420;28;19947;-61
2023/09/16 00:39:13;;;;;;;;;;;;;;;22.30;52.80;100766.22;4196378;28;19932;-61
2023/09/16 00:41:15;;;;;;;;;;;;;;;22.29;52.59;100764.53;4196458;28;19928;-61
2023/09/16 00:43:16;;;;;;;;;;;;;;;22.29;52.80;100761.84;4196203;28;19925;-61
2023/09/16 00:45:18;;;;;;;;;;;;;;;22.27;52.53;100762.00;4195987;28;20246;-61
2023/09/16 00:47:20;;;;;;;;;;;;;;;22.28;52.59;100755.63;4211762;28;20328;-61
2023/09/16 00:49:22;;;;;;;;;;;;;;;22.27;52.62;100750.41;4178337;28;19958;-61
2023/09/16 00:51:23;;;;;;;;;;;;;;;22.27;52.93;100758.44;4196244;28;20347;-61
2023/09/16 00:53:26;;;;;;;;;;;;;;;22.26;52.69;100759.41;4196032;28;19924;-61
2023/09/16 00:55:28;;;;;;;;;;;;;;;22.24;52.64;100756.88;4196352;28;19932;-61
2023/09/16 00:57:30;;;;;;;;;;;;;;;22.25;52.42;100760.38;4196024;28;19976;-61
2023/09/16 00:59:32;;;;;;;;;;;;;;;22.25;52.67;100757.72;4195945;28;20308;-60
2023/09/16 01:01:37;;;;;;;;;;;;;;;22.24;52.60;100756.03;4196177;28;20016;-61
2023/09/16 01:03:41;;;;;;;;;;;;;;;22.24;52.63;100756.03;4196001;28;19932;-61
2023/09/16 01:05:45;;;;;;;;;;;;;;;22.24;52.66;100756.03;4196148;28;19928;-61
2023/09/16 01:07:47;;;;;;;;;;;;;;;22.24;52.54;100748.84;4195939;28;20011;-61
2023/09/16 01:09:48;;;;;;;;;;;;;;;22.23;52.63;100740.94;4196089;28;19924;-61
2023/09/16 01:11:50;;;;;;;;;;;;;;;22.21;52.59;100735.69;4195856;28;20001;-61
2023/09/16 01:13:51;;;;;;;;;;;;;;;22.23;52.58;100740.94;4195886;28;19960;-61
2023/09/16 01:16:01;;;;;;;;;;;;;;;22.22;52.82;100740.06;4195469;28;20023;-61
2023/09/16 01:18:10;;;;;;;;;;;;;;;22.23;52.48;100743.63;4195644;28;20107;-61
2023/09/16 01:20:15;;;;;;;;;;;;;;;22.20;52.59;100743.88;4195685;28;19924;-61
2023/09/16 01:22:17;;;;;;;;;;;;;;;22.20;52.39;100746.53;4195727;28;19932;-61
2023/09/16 01:24:20;;;;;;;;;;;;;;;22.17;52.91;100753.84;4196041;28;20353;-60
2023/09/16 01:26:21;;;;;;;;;;;;;;;22.18;52.61;100750.19;4195367;28;19969;-60
2023/09/16 01:28:25;;;;;;;;;;;;;;;22.17;52.55;100743.13;4195789;28;19929;-61
2023/09/16 01:30:27;;;;;;;;;;;;;;;22.17;52.54;100745.81;4195444;28;20301;-61
2023/09/16 01:32:34;;;;;;;;;;;;;;;22.17;52.67;100744.97;4195656;28;19947;-61
2023/09/16 01:34:51;;;;;;;;;;;;;;;22.17;52.84;100739.63;4195832;28;19924;-61
2023/09/16 01:36:54;;;;;;;;;;;;;;;22.16;52.87;100735.22;4195580;28;19925;-61
2023/09/16 01:38:59;;;;;;;;;;;;;;;22.16;52.65;100735.22;4195375;28;19932;-62
2023/09/16 01:41:02;;;;;;;;;;;;;;;22.15;52.82;100731.72;4195544;28;19963;-61
2023/09/16 01:43:04;;;;;;;;;;;;;;;22.15;52.89;100734.41;4195273;28;19974;-60
2023/09/16 01:45:06;;;;;;;;;;;;;;;22.15;52.74;100734.41;4195492;28;19928;-61
2023/09/16 01:47:08;;;;;;;;;;;;;;;22.15;52.93;100737.06;4195294;28;19929;-61
2023/09/16 01:49:09;;;;;;;;;;;;;;;22.14;52.98;100738.06;4195605;28;20350;-60
2023/09/16 01:51:13;;;;;;;;;;;;;;;22.14;52.69;100738.06;4177686;28;19924;-61
2023/09/16 01:53:16;;;;;;;;;;;;;;;22.13;52.90;100733.66;4195502;28;20301;-61
2023/09/16 01:55:17;;;;;;;;;;;;;;;22.14;52.89;100732.69;4195772;28;20247;-61
2023/09/16 01:57:19;;;;;;;;;;;;;;;22.14;52.88;100734.50;4195371;28;19925;-61
2023/09/16 01:59:21;;;;;;;;;;;;;;;22.13;52.92;100731.00;4195152;28;20457;-61
2023/09/16 02:01:22;;;;;;;;;;;;;;;22.12;52.84;100728.44;4195202;28;19931;-61
2023/09/16 02:03:24;;;;;;;;;;;;;;;22.12;52.99;100723.09;4195349;28;19928;-62
2023/09/16 02:05:26;;;;;;;;;;;;;;;22.11;52.65;100724.06;4210962;28;19924;-61
2023/09/16 02:07:27;;;;;;;;;;;;;;;22.11;53.02;100724.91;4177516;28;20012;-61
2023/09/16 02:09:29;;;;;;;;;;;;;;;22.09;52.72;100712.63;4195334;28;19925;-61
2023/09/16 02:11:31;;;;;;;;;;;;;;;22.09;53.01;100710.81;4195052;28;20015;-61
2023/09/16 02:13:35;;;;;;;;;;;;;;;22.08;52.89;100719.81;4194945;28;20019;-61
2023/09/16 02:15:36;;;;;;;;;;;;;;;22.08;53.04;100714.47;4195185;28;19969;-61
2023/09/16 02:17:41;;;;;;;;;;;;;;;22.08;52.78;100703.75;4195044;28;19954;-61
2023/09/16 02:19:43;;;;;;;;;;;;;;;22.07;52.78;100706.56;4195054;28;19924;-61
2023/09/16 02:21:45;;;;;;;;;;;;;;;22.06;53.09;100705.69;4195060;28;20712;-61
2023/09/16 02:23:47;;;;;;;;;;;;;;;22.05;52.73;100698.66;4195082;28;19924;-61
2023/09/16 02:25:48;;;;;;;;;;;;;;;22.04;52.89;100707.66;4210335;28;19976;-61
2023/09/16 02:27:50;;;;;;;;;;;;;;;22.05;52.95;100703.16;4194643;28;19932;-61
2023/09/16 02:29:51;;;;;;;;;;;;;;;22.04;53.07;100701.47;4194806;28;20346;-60
2023/09/16 02:31:54;;;;;;;;;;;;;;;22.03;53.01;100708.66;4194778;28;19930;-60
2023/09/16 02:33:57;;;;;;;;;;;;;;;22.02;53.02;100707.78;4195122;28;20340;-61
2023/09/16 02:35:58;;;;;;;;;;;;;;;22.03;53.06;100697.94;4194808;28;19931;-61
2023/09/16 02:38:02;;;;;;;;;;;;;;;22.01;53.00;100697.22;4175922;28;19941;-60
2023/09/16 02:40:04;;;;;;;;;;;;;;;22.01;52.76;100698.06;4210274;28;20449;-60
2023/09/16 02:42:05;;;;;;;;;;;;;;;22.01;52.96;100689.19;4194313;28;19931;-61
2023/09/16 02:44:07;;;;;;;;;;;;;;;22.01;52.88;100686.50;4194750;28;19925;-61
2023/09/16 02:46:09;;;;;;;;;;;;;;;22.00;52.77;100692.84;4194654;28;20012;-61
2023/09/16 02:48:11;;;;;;;;;;;;;;;21.99;52.84;100699.16;4194817;27;20396;-61
2023/09/16 02:50:13;;;;;;;;;;;;;;;21.98;52.95;100706.38;4194671;28;19928;-61
2023/09/16 02:52:15;;;;;;;;;;;;;;;21.97;53.20;100699.31;4210019;28;20063;-61
2023/09/16 02:54:17;;;;;;;;;;;;;;;21.97;52.81;100690.41;4194768;28;19948;-61
2023/09/16 02:56:18;;;;;;;;;;;;;;;21.96;52.94;100692.25;4194353;28;19924;-61
2023/09/16 02:58:20;;;;;;;;;;;;;;;21.96;52.99;100705.63;4194458;28;19932;-62
2023/09/16 03:00:21;;;;;;;;;;;;;;;21.95;52.82;100700.41;4194578;28;19924;-61
2023/09/16 03:02:23;;;;;;;;;;;;;;;21.97;53.23;100695.75;4194601;28;19925;-61
2023/09/16 03:04:25;;;;;;;;;;;;;;;21.95;52.93;100693.22;4194589;28;20107;-61
2023/09/16 03:06:26;;;;;;;;;;;;;;;21.94;53.11;100688.84;4194563;28;19940;-61
2023/09/16 03:08:28;;;;;;;;;;;;;;;21.95;52.99;100687.03;4194397;28;20015;-61
2023/09/16 03:10:31;;;;;;;;;;;;;;;21.94;52.94;100679.97;4192805;28;19929;-61
2023/09/16 03:12:33;;;;;;;;;;;;;;;21.94;52.94;100678.13;4194506;28;19948;-61
2023/09/16 03:14:35;;;;;;;;;;;;;;;21.94;52.85;100686.16;4194561;28;19924;-61
2023/09/16 03:16:37;;;;;;;;;;;;;;;21.94;53.11;100682.66;4194454;28;19935;-61
2023/09/16 03:18:38;;;;;;;;;;;;;;;21.92;53.00;100682.78;4194410;28;20422;-61
2023/09/16 03:20:40;;;;;;;;;;;;;;;21.91;53.32;100689.13;4194126;27;19932;-61
2023/09/16 03:22:41;;;;;;;;;;;;;;;21.91;53.29;100689.13;4194104;28;20011;-61
2023/09/16 03:24:43;;;;;;;;;;;;;;;21.91;53.03;100690.94;4193997;28;19924;-60
2023/09/16 03:26:45;;;;;;;;;;;;;;;21.91;53.26;100686.44;4194106;28;19924;-61
2023/09/16 03:28:46;;;;;;;;;;;;;;;21.91;53.21;100681.09;4194272;28;19924;-61
2023/09/16 03:30:49;;;;;;;;;;;;;;;21.91;53.29;100674.84;4194136;28;19924;-61
2023/09/16 03:32:50;;;;;;;;;;;;;;;21.91;53.11;100674.84;4194228;28;19951;-61
2023/09/16 03:34:52;;;;;;;;;;;;;;;21.89;53.29;100682.19;4194148;28;20317;-61
2023/09/16 03:36:54;;;;;;;;;;;;;;;21.88;53.23;100673.28;4194158;28;19947;-61
2023/09/16 03:38:55;;;;;;;;;;;;;;;21.87;52.99;100671.59;4194337;28;20285;-61
2023/09/16 03:40:57;;;;;;;;;;;;;;;21.86;53.35;100670.75;4209417;28;20054;-61
2023/09/16 03:42:59;;;;;;;;;;;;;;;21.86;53.25;100665.41;4194246;28;19924;-61
2023/09/16 03:45:00;;;;;;;;;;;;;;;21.86;53.07;100657.38;4209763;28;20110;-61
2023/09/16 03:47:10;;;;;;;;;;;;;;;21.85;53.42;100658.34;4194029;28;19974;-61
2023/09/16 03:49:12;;;;;;;;;;;;;;;21.87;53.10;100660.88;4194167;28;20015;-61
2023/09/16 03:51:14;;;;;;;;;;;;;;;21.86;53.33;100660.03;4196840;28;19938;-61
2023/09/16 03:53:18;;;;;;;;;;;;;;;21.86;53.46;100664.56;4197235;28;20286;-61
2023/09/16 03:55:32;;;;;;;;;;;;;;;21.85;53.33;100684.28;4197165;28;20065;-61
2023/09/16 03:57:33;;;;;;;;;;;;;;;21.85;53.42;100679.75;4195983;28;19925;-61
2023/09/16 03:59:35;;;;;;;;;;;;;;;21.85;53.34;100671.72;4197078;28;19932;-61
2023/09/16 04:01:36;;;;;;;;;;;;;;;21.83;53.14;100664.81;4197016;28;19924;-61
2023/09/16 04:03:39;;;;;;;;;;;;;;;21.80;53.08;100663.25;4196944;28;19943;-61
2023/09/16 04:05:40;;;;;;;;;;;;;;;21.80;53.35;100659.69;4196847;28;19968;-61
2023/09/16 04:07:42;;;;;;;;;;;;;;;21.81;53.03;100670.31;4196865;28;19935;-61
2023/09/16 04:09:43;;;;;;;;;;;;;;;21.80;53.41;100673.94;4196570;28;19925;-61
2023/09/16 04:11:45;;;;;;;;;;;;;;;21.81;53.55;100672.97;4196866;28;20067;-61
2023/09/16 04:13:46;;;;;;;;;;;;;;;21.81;53.13;100662.28;4196855;28;20326;-61
2023/09/16 04:15:51;;;;;;;;;;;;;;;21.81;53.56;100653.38;4196715;28;19976;-61
2023/09/16 04:17:53;;;;;;;;;;;;;;;21.80;53.40;100643.63;4196589;28;19924;-61
2023/09/16 04:19:54;;;;;;;;;;;;;;;21.80;53.44;100646.31;4196303;27;19925;-61
2023/09/16 04:22:01;;;;;;;;;;;;;;;21.79;53.36;100648.16;4196801;27;19956;-61
2023/09/16 04:24:07;;;;;;;;;;;;;;;21.77;53.54;100651.94;4196341;28;20530;-61
2023/09/16 04:26:13;;;;;;;;;;;;;;;21.76;53.31;100643.03;4196598;28;19966;-61
2023/09/16 04:28:15;;;;;;;;;;;;;;;21.75;53.63;100637.81;4212203;28;19928;-61
2023/09/16 04:30:19;;;;;;;;;;;;;;;21.75;53.25;100644.06;4196587;28;19929;-61
2023/09/16 04:32:21;;;;;;;;;;;;;;;21.74;53.65;100653.06;4196721;28;19924;-61
2023/09/16 04:34:22;;;;;;;;;;;;;;;21.74;53.50;100644.16;4196564;28;19926;-61
2023/09/16 04:36:24;;;;;;;;;;;;;;;21.74;53.46;100641.47;4196557;28;19942;-61
2023/09/16 04:38:25;;;;;;;;;;;;;;;21.72;53.68;100633.59;4195981;28;19928;-62
2023/09/16 04:40:27;;;;;;;;;;;;;;;21.72;53.28;100632.75;4196406;28;19951;-61
2023/09/16 04:42:30;;;;;;;;;;;;;;;21.71;53.43;100637.25;4196344;28;19924;-61
2023/09/16 04:44:38;;;;;;;;;;;;;;;21.70;53.54;100639.06;4196464;28;19980;-61
2023/09/16 04:46:39;;;;;;;;;;;;;;;21.70;53.50;100630.19;4196365;28;20305;-61
2023/09/16 04:48:41;;;;;;;;;;;;;;;21.70;53.56;100636.41;4195991;28;20024;-61
2023/09/16 04:50:43;;;;;;;;;;;;;;;21.70;53.43;100635.53;4196249;28;19969;-61
2023/09/16 04:52:45;;;;;;;;;;;;;;;21.69;53.42;100645.41;4195894;28;19932;-61
2023/09/16 04:54:46;;;;;;;;;;;;;;;21.69;53.79;100641.88;4196303;28;20031;-61
2023/09/16 04:56:48;;;;;;;;;;;;;;;21.69;53.49;100639.22;4196157;28;19952;-61
2023/09/16 04:58:49;;;;;;;;;;;;;;;21.69;53.71;100645.41;4196247;28;19935;-61
2023/09/16 05:00:51;;;;;;;;;;;;;;;21.69;53.50;100649.91;4195643;28;20404;-61
2023/09/16 05:02:53;;;;;;;;;;;;;;;21.69;53.62;100649.91;4195981;28;19924;-61
2023/09/16 05:04:55;;;;;;;;;;;;;;;21.68;53.60;100649.06;4196118;28;20020;-61
2023/09/16 05:06:59;;;;;;;;;;;;;;;21.67;53.77;100650.03;4195729;28;19924;-61
2023/09/16 05:09:01;;;;;;;;;;;;;;;21.67;53.59;100654.53;4196347;28;19931;-61
2023/09/16 05:11:03;;;;;;;;;;;;;;;21.66;53.75;100647.47;4195794;28;20004;-61
2023/09/16 05:13:05;;;;;;;;;;;;;;;21.65;53.75;100648.47;4196010;28;19977;-61
2023/09/16 05:15:06;;;;;;;;;;;;;;;21.65;53.64;100643.09;4195902;28;20323;-61
2023/09/16 05:17:08;;;;;;;;;;;;;;;21.64;53.57;100646.75;4195823;28;20382;-61
2023/09/16 05:19:10;;;;;;;;;;;;;;;21.63;53.81;100656.63;4196102;28;19928;-62
2023/09/16 05:21:11;;;;;;;;;;;;;;;21.62;53.78;100660.28;4195603;28;20285;-61
2023/09/16 05:23:13;;;;;;;;;;;;;;;21.62;53.90;100656.75;4195802;27;19928;-59
2023/09/16 05:25:15;;;;;;;;;;;;;;;21.63;53.78;100663.78;4196093;28;19992;-61
2023/09/16 05:27:17;;;;;;;;;;;;;;;21.63;53.99;100669.13;4195929;28;20016;-61
2023/09/16 05:29:19;;;;;;;;;;;;;;;21.63;53.78;100669.13;4211238;28;19928;-61
2023/09/16 05:31:23;;;;;;;;;;;;;;;21.63;53.89;100672.69;4195722;28;19924;-61
2023/09/16 05:33:25;;;;;;;;;;;;;;;21.61;53.92;100671.94;4195872;28;19931;-61
2023/09/16 05:35:27;;;;;;;;;;;;;;;21.61;53.91;100671.94;4195495;28;19932;-61
2023/09/16 05:37:29;;;;;;;;;;;;;;;21.61;53.81;100665.75;4195606;28;19924;-62
2023/09/16 05:39:31;;;;;;;;;;;;;;;21.61;53.93;100679.97;4195784;28;19925;-61
2023/09/16 05:41:33;;;;;;;;;;;;;;;21.61;53.79;100681.81;4195792;28;20416;-61
2023/09/16 05:43:34;;;;;;;;;;;;;;;21.61;53.79;100681.81;4195570;28;20011;-61
2023/09/16 05:45:38;;;;;;;;;;;;;;;21.60;53.60;100672.94;4195626;28;19928;-61
2023/09/16 05:47:40;;;;;;;;;;;;;;;21.58;53.83;100677.56;4211237;28;19964;-61
2023/09/16 05:49:42;;;;;;;;;;;;;;;21.59;53.76;100675.75;4195108;28;20246;-61
2023/09/16 05:51:44;;;;;;;;;;;;;;;21.58;53.96;100682.06;4195472;28;20377;-61
2023/09/16 05:53:45;;;;;;;;;;;;;;;21.57;53.87;100683.91;4195377;28;19928;-61
2023/09/16 05:55:53;;;;;;;;;;;;;;;21.57;53.83;100683.03;4195406;28;19948;-61
2023/09/16 05:57:54;;;;;;;;;;;;;;;21.56;53.94;100687.53;4195239;28;20024;-61
2023/09/16 05:59:56;;;;;;;;;;;;;;;21.55;53.92;100686.66;4195347;28;19925;-61
2023/09/16 06:01:57;;;;;;;;;;;;;;;21.56;53.71;100687.53;4195448;28;19924;-62
2023/09/16 06:03:59;;;;;;;;;;;;;;;21.48;53.77;100682.81;4195020;28;20423;-61
2023/09/16 06:06:01;;;;;;;;;;;;;;;21.55;53.77;100694.69;4195114;28;20358;-61
2023/09/16 06:08:02;;;;;;;;;;;;;;;21.54;53.93;100694.81;4195158;28;20382;-62
2023/09/16 06:10:06;;;;;;;;;;;;;;;21.54;53.93;100694.81;4195210;28;19925;-61
2023/09/16 06:12:08;;;;;;;;;;;;;;;21.53;53.95;100702.00;4195275;28;19924;-61
2023/09/16 06:14:10;;;;;;;;;;;;;;;21.53;53.71;100704.69;4194097;28;20443;-61
2023/09/16 06:16:11;;;;;;;;;;;;;;;21.53;54.06;100704.69;4195146;28;19925;-61
2023/09/16 06:18:13;;;;;;;;;;;;;;;21.52;53.79;100708.31;4195252;28;19969;-61
2023/09/16 06:20:15;;;;;;;;;;;;;;;21.53;53.99;100704.69;4194495;27;19931;-61
2023/09/16 06:22:17;;;;;;;;;;;;;;;21.53;53.78;100707.34;4195132;28;20027;-61
2023/09/16 06:24:18;;;;;;;;;;;;;;;21.53;53.78;100699.34;4195007;28;20019;-61
2023/09/16 06:26:23;;;;;;;;;;;;;;;21.54;53.93;100705.53;4210143;28;20468;-61
2023/09/16 06:28:25;;;;;;;;;;;;;;;21.54;53.92;100709.06;4195117;28;19928;-61
2023/09/16 06:30:26;;;;;;;;;;;;;;;21.54;53.93;100714.41;4194940;28;20297;-62
2023/09/16 06:32:28;;;;;;;;;;;;;;;21.54;53.82;100714.41;4195105;28;19924;-61
2023/09/16 06:34:29;;;;;;;;;;;;;;;21.54;53.93;100717.09;4194708;28;19924;-61
2023/09/16 06:36:31;;;;;;;;;;;;;;;21.55;53.88;100720.59;4210572;28;19980;-61
2023/09/16 06:38:33;;;;;;;;;;;;;;;21.55;53.92;100729.47;4194595;28;19981;-61
2023/09/16 06:40:34;;;;;;;;;;;;;;;21.54;54.03;100725.13;4194773;28;19960;-61
2023/09/16 06:42:36;;;;;;;;;;;;;;;21.53;54.06;100726.09;4194963;28;19960;-61
2023/09/16 06:44:37;;;;;;;;;;;;;;;21.54;53.95;100721.56;4194883;28;19925;-61
2023/09/16 06:46:40;;;;;;;;;;;;;;;21.54;53.96;100732.28;4194889;28;20007;-61
2023/09/16 06:48:44;;;;;;;;;;;;;;;21.54;54.06;100730.47;4194403;28;19932;-61
2023/09/16 06:50:45;;;;;;;;;;;;;;;21.53;54.03;100735.94;4194760;28;20389;-61
2023/09/16 06:52:47;;;;;;;;;;;;;;;21.52;53.72;100729.75;4194492;28;19931;-61
2023/09/16 06:54:49;;;;;;;;;;;;;;;21.52;53.66;100724.38;4194703;28;19932;-61
2023/09/16 06:56:51;;;;;;;;;;;;;;;21.50;53.67;100718.31;4194975;27;19925;-60
2023/09/16 06:58:56;;;;;;;;;;;;;;;21.51;54.03;100728.03;4194664;28;20389;-61
2023/09/16 07:01:15;;;;;;;;;;;;;;;21.52;53.78;100723.53;4194708;28;19976;-61
2023/09/16 07:03:17;;;;;;;;;;;;;;;21.51;53.78;100714.66;4194272;28;19966;-61
2023/09/16 07:05:19;;;;;;;;;;;;;;;21.51;53.68;100706.63;4194539;28;19925;-61
2023/09/16 07:07:23;;;;;;;;;;;;;;;21.51;53.97;100711.97;4194435;28;19925;-60
2023/09/16 07:09:25;;;;;;;;;;;;;;;21.51;53.99;100711.97;4194549;28;20346;-60
2023/09/16 07:11:27;;;;;;;;;;;;;;;21.53;53.85;100719.88;4194326;28;19946;-61
2023/09/16 07:13:29;;;;;;;;;;;;;;;21.52;53.93;100710.16;4194494;28;19969;-60
2023/09/16 07:15:30;;;;;;;;;;;;;;;21.52;53.96;100712.84;4194478;28;20311;-59
2023/09/16 07:17:34;;;;;;;;;;;;;;;21.51;54.05;100711.13;4194050;28;19932;-59
2023/09/16 07:19:36;;;;;;;;;;;;;;;21.51;54.01;100697.75;4194216;27;19964;-60
2023/09/16 07:21:37;;;;;;;;;;;;;;;21.51;53.79;100701.28;4194381;27;19929;-61
2023/09/16 07:23:39;;;;;;;;;;;;;;;21.52;53.75;100691.44;4194311;28;19924;-60
2023/09/16 07:25:41;;;;;;;;;;;;;;;21.52;53.71;100697.63;4193887;28;19970;-60
2023/09/16 07:27:42;;;;;;;;;;;;;;;21.52;53.94;100697.63;4194322;28;19928;-60
2023/09/16 07:29:44;;;;;;;;;;;;;;;21.53;53.71;100693.97;4194380;28;20384;-61
2023/09/16 07:31:46;;;;;;;;;;;;;;;21.52;53.68;100691.44;4193705;28;19933;-60
2023/09/16 07:33:48;;;;;;;;;;;;;;;21.53;54.05;100693.97;4194275;28;19936;-61
2023/09/16 07:35:51;;;;;;;;;;;;;;;21.53;53.78;100707.34;4194068;28;19928;-61
2023/09/16 07:37:53;;;;;;;;;;;;;;;21.55;54.10;100709.91;4194315;28;20270;-61
2023/09/16 07:39:54;;;;;;;;;;;;;;;21.55;53.95;100707.22;4194034;28;20287;-61
2023/09/16 07:41:56;;;;;;;;;;;;;;;21.55;54.08;100718.75;4194164;28;19925;-60
2023/09/16 07:43:58;;;;;;;;;;;;;;;21.57;53.77;100715.16;4194226;28;19928;-60
2023/09/16 07:46:00;;;;;;;;;;;;;;;21.59;54.03;100718.56;4193874;28;19925;-61
2023/09/16 07:48:02;;;;;;;;;;;;;;;21.59;53.69;100716.72;4194162;28;20334;-59
2023/09/16 07:50:04;;;;;;;;;;;;;;;21.59;54.02;100714.03;4193906;28;19925;-61
2023/09/16 07:52:06;;;;;;;;;;;;;;;21.60;53.92;100718.41;4193785;28;19932;-61
2023/09/16 07:54:07;;;;;;;;;;;;;;;21.60;53.92;100718.41;4194053;28;19925;-61
2023/09/16 07:56:09;;;;;;;;;;;;;;;21.60;54.02;100715.75;4209442;28;19928;-60
2023/09/16 07:58:10;;;;;;;;;;;;;;;21.61;53.80;100717.44;4193941;28;19928;-61
2023/09/16 08:00:12;;;;;;;;;;;;;;;21.62;54.05;100723.66;4193583;28;20293;-61
2023/09/16 08:02:15;;;;;;;;;;;;;;;21.64;53.96;100727.03;4193985;28;19925;-61
2023/09/16 08:04:16;;;;;;;;;;;;;;;21.65;53.79;100728.75;4193804;28;19928;-60
2023/09/16 08:06:18;;;;;;;;;;;;;;;21.65;53.96;100729.63;4193899;28;19969;-60
2023/09/16 08:08:20;;;;;;;;;;;;;;;21.66;53.88;100733.13;4193882;28;19955;-61
2023/09/16 08:10:22;;;;;;;;;;;;;;;21.67;53.97;100729.50;4193705;28;19977;-61
2023/09/16 08:12:23;;;;;;;;;;;;;;;21.67;53.91;100729.50;4193803;28;20309;-61
2023/09/16 08:14:25;;;;;;;;;;;;;;;21.68;53.57;100728.50;4193589;28;20635;-60
2023/09/16 08:16:28;;;;;;;;;;;;;;;21.69;53.81;100724.88;4193421;28;20035;-61
2023/09/16 08:18:29;;;;;;;;;;;;;;;21.69;53.67;100727.53;4193651;28;19925;-61
2023/09/16 08:20:31;;;;;;;;;;;;;;;21.69;53.86;100730.22;4193491;27;19932;-61
2023/09/16 08:22:33;;;;;;;;;;;;;;;21.70;53.73;100731.91;4193384;28;19943;-60
2023/09/16 08:24:35;;;;;;;;;;;;;;;21.71;53.73;100733.59;4193676;28;19929;-61
2023/09/16 08:26:36;;;;;;;;;;;;;;;21.72;53.77;100729.94;4193545;28;20316;-60
2023/09/16 08:28:38;;;;;;;;;;;;;;;21.72;53.72;100724.59;4193629;28;20446;-60
2023/09/16 08:30:43;;;;;;;;;;;;;;;21.73;53.93;100723.63;4193280;28;19924;-61
2023/09/16 08:32:44;;;;;;;;;;;;;;;21.73;53.73;100717.44;4178472;28;19973;-61
2023/09/16 08:34:46;;;;;;;;;;;;;;;21.72;53.96;100719.25;4193691;28;19969;-65
2023/09/16 08:36:48;;;;;;;;;;;;;;;21.73;54.12;100718.28;4185619;28;20022;-65
2023/09/16 08:38:49;;;;;;;;;;;;;;;21.75;53.84;100715.47;4188459;28;19930;-65
2023/09/16 08:41:04;;;;;;;;;;;;;;;21.75;53.83;100718.13;4196179;28;19924;-65
2023/09/16 08:43:10;;;;;;;;;;;;;;;21.75;53.75;100715.47;4196255;28;20023;-64
2023/09/16 08:45:15;;;;;;;;;;;;;;;21.75;54.16;100721.69;4196039;28;19925;-65
2023/09/16 08:47:27;;;;;;;;;;;;;;;21.76;53.85;100714.47;4199089;28;19924;-65
2023/09/16 08:49:30;;;;;;;;;;;;;;;21.76;54.07;100718.00;4194324;28;19924;-65
2023/09/16 08:51:34;;;;;;;;;;;;;;;21.79;54.17;100717.75;4196266;28;19931;-65
2023/09/16 08:53:37;;;;;;;;;;;;;;;21.80;54.56;100722.13;4200425;28;19931;-64
2023/09/16 08:55:41;;;;;;;;;;;;;;;21.80;54.24;100716.78;4208663;28;20037;-66
2023/09/16 08:58:14;;;;;;;;;;;;;;;21.81;54.33;100718.50;4199024;28;20196;-65
2023/09/16 09:00:16;;;;;;;;;;;;;;;21.83;54.08;100726.38;4190895;28;19925;-65
2023/09/16 09:02:18;;;;;;;;;;;;;;;21.85;54.17;100719.09;4183967;28;19929;-63
2023/09/16 09:04:19;;;;;;;;;;;;;;;21.86;54.38;100726.13;4190908;28;19978;-64
2023/09/16 09:06:22;;;;;;;;;;;;;;;21.87;54.54;100730.50;4184248;28;20309;-65
2023/09/16 09:08:40;;;;;;;;;;;;;;;21.91;54.59;100717.69;4198838;28;19925;-65
2023/09/16 09:10:41;;;;;;;;;;;;;;;21.93;56.24;100713.06;4195924;28;19977;-68
2023/09/16 09:12:44;;;;;;;;;;;;;;;22.02;55.73;100715.00;4189286;28;20011;-63
2023/09/16 09:14:47;;;;;;;;;;;;;;;22.04;56.15;100713.00;4194548;28;19924;-66
2023/09/16 09:16:49;;;;;;;;;;;;;;;22.09;55.38;100718.84;4193134;28;19932;-67
2023/09/16 09:18:53;;;;;;;;;;;;;;;22.14;54.91;100718.44;4184511;28;19924;-69
2023/09/16 09:20:54;;;;;;;;;;;;;;;22.01;55.97;100705.25;4195550;27;19932;-70
2023/09/16 09:22:57;;;;;;;;;;;;;;;21.97;55.31;100717.19;4188342;28;20354;-67
2023/09/16 09:24:58;;;;;;;;;;;;;;;22.02;54.82;100723.03;4196494;28;20007;-67
2023/09/16 09:27:01;;;;;;;;;;;;;;;22.10;54.75;100725.03;4197395;28;19929;-73
2023/09/16 09:29:03;;;;;;;;;;;;;;;22.18;54.71;100728.75;4196696;28;20281;-71
2023/09/16 09:31:04;;;;;;;;;;;;;;;22.24;54.48;100734.59;4187851;28;19929;-68
2023/09/16 09:33:11;;;;;;;;;;;;;;;22.25;54.54;100729.09;4179953;27;19928;-69
2023/09/16 09:35:13;;;;;;;;;;;;;;;22.32;54.64;100724.94;4200653;27;19924;-74
2023/09/16 09:37:16;;;;;;;;;;;;;;;22.35;54.51;100723.81;4191382;27;19935;-74
2023/09/16 09:39:18;;;;;;;;;;;;;;;22.33;54.30;100723.94;4214106;27;20132;-66
2023/09/16 09:41:20;;;;;;;;;;;;;;;22.30;54.77;100718.00;4188028;28;19924;-65
2023/09/16 09:43:23;;;;;;;;;;;;;;;22.34;54.86;100722.94;4211613;28;19924;-63
2023/09/16 09:45:25;;;;;;;;;;;;;;;22.43;54.30;100721.38;4215172;27;19933;-67
2023/09/16 09:47:27;;;;;;;;;;;;;;;22.39;54.70;100717.22;4177380;28;19932;-66
2023/09/16 09:49:29;;;;;;;;;;;;;;;22.39;54.33;100716.41;4196379;27;19925;-67
2023/09/16 09:51:31;;;;;;;;;;;;;;;22.41;54.45;100709.09;4194987;27;19925;-68
2023/09/16 09:53:33;;;;;;;;;;;;;;;22.41;54.56;100711.75;4194912;28;19966;-67
2023/09/16 09:55:35;;;;;;;;;;;;;;;22.36;55.07;100714.81;4229870;27;19933;-66
2023/09/16 09:57:37;;;;;;;;;;;;;;;22.38;55.01;100715.53;4220319;27;20443;-70
2023/09/16 09:59:40;;;;;;;;;;;;;;;22.40;55.47;100712.75;4196100;27;19928;-71
2023/09/16 10:01:42;;;;;;;;;;;;;;;22.42;55.49;100708.94;4202303;28;19924;-68
2023/09/16 10:03:49;;;;;;;;;;;;;;;22.40;55.63;100707.38;4189413;27;19975;-69
2023/09/16 10:05:51;;;;;;;;;;;;;;;22.44;55.54;100707.00;4196104;27;19960;-65
2023/09/16 10:07:55;;;;;;;;;;;;;;;22.46;55.54;100698.81;4254629;27;19926;-67
2023/09/16 10:09:57;;;;;;;;;;;;;;;22.55;55.29;100692.63;4271176;27;19929;-66
2023/09/16 10:12:00;;;;;;;;;;;;;;;22.63;56.50;100698.19;4202915;27;20031;-60
2023/09/16 10:14:01;;;;;;;;;;;;;;;22.81;55.23;100698.41;4190962;27;19931;-68
2023/09/16 10:16:05;;;;;;;;;;;;;;;22.87;54.49;100694.34;4210767;27;19932;-66
2023/09/16 10:18:07;;;;;;;;;;;;;;;22.90;54.82;100690.53;4188637;27;19947;-74
2023/09/16 10:20:11;;;;;;;;;;;;;;;22.92;55.19;100693.94;4189376;27;19929;-65
2023/09/16 10:22:13;;;;;;;;;;;;;;;22.96;54.91;100698.03;4209204;27;20290;-63
2023/09/16 10:24:18;;;;;;;;;;;;;;;23.01;54.46;100695.78;4272143;27;20387;-68
2023/09/16 10:26:20;;;;;;;;;;;;;;;23.04;53.72;100691.97;4181017;27;20096;-67
2023/09/16 10:28:22;;;;;;;;;;;;;;;23.03;53.85;100688.47;4193554;27;20381;-70